sensor_id;sensor_type;location;lat;lon;timestamp;P1;durP1;ratioP1;P2;durP2;ratioP2
5955;SDS011;3004;48.080;11.600;2023-04-24T04:32:44;71.40;;;7.90;;
5955;SDS011;3004;48.080;11.600;2023-04-24T04:35:12;71.30;;;7.83;;
5955;SDS011;3004;48.080;11.600;2023-04-24T04:37:39;71.40;;;7.80;;
5955;SDS011;3004;48.080;11.600;2023-04-24T04:40:07;71.47;;;7.73;;
5955;SDS011;3004;48.080;11.600;2023-04-24T04:42:36;71.67;;;7.80;;
5955;SDS011;3004;48.080;11.600;2023-04-24T04:45:05;71.57;;;7.80;;
5955;SDS011;3004;48.080;11.600;2023-04-24T04:47:34;71.80;;;7.67;;
5955;SDS011;3004;48.080;11.600;2023-04-24T04:50:03;71.80;;;7.70;;
5955;SDS011;3004;48.080;11.600;2023-04-24T04:52:30;71.50;;;7.70;;
5955;SDS011;3004;48.080;11.600;2023-04-24T04:54:57;71.63;;;7.73;;
5955;SDS011;3004;48.080;11.600;2023-04-24T04:57:25;71.80;;;7.73;;
5955;SDS011;3004;48.080;11.600;2023-04-24T04:59:53;71.70;;;7.57;;
5955;SDS011;3004;48.080;11.600;2023-04-24T05:02:20;71.70;;;7.63;;
5955;SDS011;3004;48.080;11.600;2023-04-24T05:04:47;71.50;;;7.60;;
5955;SDS011;3004;48.080;11.600;2023-04-24T05:07:16;71.77;;;7.57;;
5955;SDS011;3004;48.080;11.600;2023-04-24T05:09:44;71.87;;;7.70;;
5955;SDS011;3004;48.080;11.600;2023-04-24T05:12:11;71.47;;;7.67;;
5955;SDS011;3004;48.080;11.600;2023-04-24T05:14:39;71.37;;;7.73;;
5955;SDS011;3004;48.080;11.600;2023-04-24T05:17:06;71.40;;;7.73;;
5955;SDS011;3004;48.080;11.600;2023-04-24T05:19:33;71.50;;;7.77;;
5955;SDS011;3004;48.080;11.600;2023-04-24T05:22:02;71.10;;;7.67;;
5955;SDS011;3004;48.080;11.600;2023-04-24T05:24:33;71.67;;;7.67;;
5955;SDS011;3004;48.080;11.600;2023-04-24T05:27:00;71.70;;;7.60;;
5955;SDS011;3004;48.080;11.600;2023-04-24T05:29:35;71.73;;;7.60;;
5955;SDS011;3004;48.080;11.600;2023-04-24T05:32:02;71.50;;;7.63;;
5955;SDS011;3004;48.080;11.600;2023-04-24T05:34:29;71.67;;;7.67;;
5955;SDS011;3004;48.080;11.600;2023-04-24T05:37:01;71.67;;;7.73;;
5955;SDS011;3004;48.080;11.600;2023-04-24T05:39:36;71.67;;;7.60;;
5955;SDS011;3004;48.080;11.600;2023-04-24T05:48:32;71.40;;;7.67;;
5955;SDS011;3004;48.080;11.600;2023-04-24T05:50:59;71.30;;;7.67;;
5955;SDS011;3004;48.080;11.600;2023-04-24T05:53:27;71.73;;;7.67;;
5955;SDS011;3004;48.080;11.600;2023-04-24T05:55:56;71.57;;;7.77;;
5955;SDS011;3004;48.080;11.600;2023-04-24T05:58:23;71.30;;;7.67;;
5955;SDS011;3004;48.080;11.600;2023-04-24T06:00:50;71.47;;;7.77;;
5955;SDS011;3004;48.080;11.600;2023-04-24T06:03:19;71.17;;;7.77;;
5955;SDS011;3004;48.080;11.600;2023-04-24T06:05:47;70.90;;;7.87;;
5955;SDS011;3004;48.080;11.600;2023-04-24T06:08:14;70.70;;;7.90;;
5955;SDS011;3004;48.080;11.600;2023-04-24T06:10:43;71.27;;;8.10;;
5955;SDS011;3004;48.080;11.600;2023-04-24T06:13:12;70.97;;;7.87;;
5955;SDS011;3004;48.080;11.600;2023-04-24T06:15:39;71.10;;;7.80;;
5955;SDS011;3004;48.080;11.600;2023-04-24T06:18:08;71.33;;;7.87;;
5955;SDS011;3004;48.080;11.600;2023-04-24T06:20:42;71.53;;;8.00;;
5955;SDS011;3004;48.080;11.600;2023-04-24T06:23:10;71.27;;;7.87;;
5955;SDS011;3004;48.080;11.600;2023-04-24T06:25:37;71.47;;;7.87;;
5955;SDS011;3004;48.080;11.600;2023-04-24T06:28:05;71.20;;;7.90;;
5955;SDS011;3004;48.080;11.600;2023-04-24T06:30:39;70.97;;;8.03;;
5955;SDS011;3004;48.080;11.600;2023-04-24T06:33:07;70.40;;;8.23;;
5955;SDS011;3004;48.080;11.600;2023-04-24T06:35:34;70.43;;;8.20;;
5955;SDS011;3004;48.080;11.600;2023-04-24T06:38:03;70.30;;;8.23;;
5955;SDS011;3004;48.080;11.600;2023-04-24T06:40:30;70.53;;;8.17;;
5955;SDS011;3004;48.080;11.600;2023-04-24T06:42:58;70.80;;;8.07;;
5955;SDS011;3004;48.080;11.600;2023-04-24T06:51:38;72.27;;;7.60;;
5955;SDS011;3004;48.080;11.600;2023-04-24T06:54:05;72.57;;;7.53;;
5955;SDS011;3004;48.080;11.600;2023-04-24T06:56:35;72.70;;;7.37;;
5955;SDS011;3004;48.080;11.600;2023-04-24T07:04:57;73.87;;;7.07;;
5955;SDS011;3004;48.080;11.600;2023-04-24T07:10:13;73.30;;;6.77;;
5955;SDS011;3004;48.080;11.600;2023-04-24T07:12:41;73.57;;;6.63;;
5955;SDS011;3004;48.080;11.600;2023-04-24T07:15:09;72.87;;;6.30;;
5955;SDS011;3004;48.080;11.600;2023-04-24T07:17:36;73.07;;;6.23;;
5955;SDS011;3004;48.080;11.600;2023-04-24T07:22:48;73.00;;;6.10;;
5955;SDS011;3004;48.080;11.600;2023-04-24T07:28:06;72.77;;;6.03;;
5955;SDS011;3004;48.080;11.600;2023-04-24T07:41:11;71.50;;;4.90;;
5955;SDS011;3004;48.080;11.600;2023-04-24T08:23:25;69.27;;;3.70;;
5955;SDS011;3004;48.080;11.600;2023-04-24T08:31:50;69.20;;;3.80;;
5955;SDS011;3004;48.080;11.600;2023-04-24T08:34:24;69.20;;;3.73;;
5955;SDS011;3004;48.080;11.600;2023-04-24T08:37:24;69.07;;;3.70;;
5955;SDS011;3004;48.080;11.600;2023-04-24T08:42:53;69.27;;;3.80;;
5955;SDS011;3004;48.080;11.600;2023-04-24T08:45:28;71.77;;;4.77;;
5955;SDS011;3004;48.080;11.600;2023-04-24T08:48:34;69.17;;;3.80;;
5955;SDS011;3004;48.080;11.600;2023-04-24T08:51:20;69.07;;;3.80;;
5955;SDS011;3004;48.080;11.600;2023-04-24T08:53:59;68.30;;;3.60;;
5955;SDS011;3004;48.080;11.600;2023-04-24T08:56:33;68.67;;;3.50;;
5955;SDS011;3004;48.080;11.600;2023-04-24T09:02:21;68.17;;;3.30;;
5955;SDS011;3004;48.080;11.600;2023-04-24T09:04:58;67.80;;;3.20;;
5955;SDS011;3004;48.080;11.600;2023-04-24T09:07:33;68.40;;;3.10;;
5955;SDS011;3004;48.080;11.600;2023-04-24T09:10:02;67.83;;;3.20;;
5955;SDS011;3004;48.080;11.600;2023-04-24T09:18:52;67.93;;;3.20;;
5955;SDS011;3004;48.080;11.600;2023-04-24T09:21:21;67.40;;;3.00;;
5955;SDS011;3004;48.080;11.600;2023-04-24T09:23:57;67.27;;;2.90;;
5955;SDS011;3004;48.080;11.600;2023-04-24T09:26:29;68.37;;;4.43;;
5955;SDS011;3004;48.080;11.600;2023-04-24T09:38:44;67.67;;;3.10;;
5955;SDS011;3004;48.080;11.600;2023-04-24T09:50:08;67.10;;;2.80;;
5955;SDS011;3004;48.080;11.600;2023-04-24T09:52:35;67.27;;;2.80;;
5955;SDS011;3004;48.080;11.600;2023-04-24T09:58:12;67.20;;;2.70;;
5955;SDS011;3004;48.080;11.600;2023-04-24T10:00:51;67.10;;;2.80;;
5955;SDS011;3004;48.080;11.600;2023-04-24T10:03:29;66.90;;;2.80;;
5955;SDS011;3004;48.080;11.600;2023-04-24T10:05:58;66.87;;;2.60;;
5955;SDS011;3004;48.080;11.600;2023-04-24T10:08:26;67.40;;;2.80;;
5955;SDS011;3004;48.080;11.600;2023-04-24T10:20:43;67.17;;;2.60;;
5955;SDS011;3004;48.080;11.600;2023-04-24T10:23:19;66.67;;;2.60;;
5955;SDS011;3004;48.080;11.600;2023-04-24T10:28:36;66.97;;;2.60;;
5955;SDS011;3004;48.080;11.600;2023-04-24T10:31:03;67.10;;;2.53;;
5955;SDS011;3004;48.080;11.600;2023-04-24T10:33:31;66.87;;;2.50;;
5955;SDS011;3004;48.080;11.600;2023-04-24T10:36:00;66.47;;;2.20;;
5955;SDS011;3004;48.080;11.600;2023-04-24T10:38:27;66.67;;;2.10;;
5955;SDS011;3004;48.080;11.600;2023-04-24T10:43:30;66.57;;;1.90;;
5955;SDS011;3004;48.080;11.600;2023-04-24T10:46:00;66.20;;;1.90;;
5955;SDS011;3004;48.080;11.600;2023-04-24T10:48:43;66.37;;;2.20;;
5955;SDS011;3004;48.080;11.600;2023-04-24T10:51:42;66.40;;;1.90;;
5955;SDS011;3004;48.080;11.600;2023-04-24T10:57:29;66.37;;;1.90;;
5955;SDS011;3004;48.080;11.600;2023-04-24T11:03:23;66.53;;;2.33;;
5955;SDS011;3004;48.080;11.600;2023-04-24T11:06:08;66.77;;;2.40;;
5955;SDS011;3004;48.080;11.600;2023-04-24T11:08:42;66.90;;;2.50;;
5955;SDS011;3004;48.080;11.600;2023-04-24T11:23:17;66.73;;;2.50;;
5955;SDS011;3004;48.080;11.600;2023-04-24T11:25:52;66.40;;;2.50;;
5955;SDS011;3004;48.080;11.600;2023-04-24T11:37:27;66.47;;;1.97;;
5955;SDS011;3004;48.080;11.600;2023-04-24T11:39:56;66.77;;;2.00;;
5955;SDS011;3004;48.080;11.600;2023-04-24T11:48:09;67.07;;;1.73;;
5955;SDS011;3004;48.080;11.600;2023-04-24T11:50:45;66.60;;;1.70;;
5955;SDS011;3004;48.080;11.600;2023-04-24T11:53:18;66.80;;;1.53;;
5955;SDS011;3004;48.080;11.600;2023-04-24T11:55:53;66.30;;;1.57;;
5955;SDS011;3004;48.080;11.600;2023-04-24T11:58:44;66.17;;;1.60;;
5955;SDS011;3004;48.080;11.600;2023-04-24T12:01:11;66.30;;;1.70;;
5955;SDS011;3004;48.080;11.600;2023-04-24T12:03:48;66.67;;;1.60;;
5955;SDS011;3004;48.080;11.600;2023-04-24T12:06:19;66.30;;;1.40;;
5955;SDS011;3004;48.080;11.600;2023-04-24T12:08:55;68.37;;;2.33;;
5955;SDS011;3004;48.080;11.600;2023-04-24T12:11:23;66.40;;;1.70;;
5955;SDS011;3004;48.080;11.600;2023-04-24T12:13:51;66.80;;;2.00;;
5955;SDS011;3004;48.080;11.600;2023-04-24T12:16:18;66.87;;;2.30;;
5955;SDS011;3004;48.080;11.600;2023-04-24T12:18:46;67.10;;;2.50;;
5955;SDS011;3004;48.080;11.600;2023-04-24T12:24:55;67.77;;;2.70;;
5955;SDS011;3004;48.080;11.600;2023-04-24T12:27:24;67.60;;;2.80;;
5955;SDS011;3004;48.080;11.600;2023-04-24T12:29:52;67.50;;;2.80;;
5955;SDS011;3004;48.080;11.600;2023-04-24T12:32:20;68.57;;;3.33;;
5955;SDS011;3004;48.080;11.600;2023-04-24T12:34:49;68.93;;;3.20;;
5955;SDS011;3004;48.080;11.600;2023-04-24T12:37:21;68.50;;;3.20;;
5955;SDS011;3004;48.080;11.600;2023-04-24T12:40:03;68.17;;;2.90;;
5955;SDS011;3004;48.080;11.600;2023-04-24T12:45:36;67.77;;;2.80;;
5955;SDS011;3004;48.080;11.600;2023-04-24T12:48:04;67.40;;;2.90;;
5955;SDS011;3004;48.080;11.600;2023-04-24T12:50:37;68.10;;;3.33;;
5955;SDS011;3004;48.080;11.600;2023-04-24T13:07:25;67.73;;;2.83;;
5955;SDS011;3004;48.080;11.600;2023-04-24T13:09:54;67.80;;;2.90;;
5955;SDS011;3004;48.080;11.600;2023-04-24T13:25:03;66.90;;;2.27;;
5955;SDS011;3004;48.080;11.600;2023-04-24T13:27:38;67.80;;;3.07;;
5955;SDS011;3004;48.080;11.600;2023-04-24T13:36:00;66.60;;;1.40;;
5955;SDS011;3004;48.080;11.600;2023-04-24T13:38:33;66.63;;;1.60;;
5955;SDS011;3004;48.080;11.600;2023-04-24T13:41:07;66.67;;;1.57;;
5955;SDS011;3004;48.080;11.600;2023-04-24T13:46:23;66.60;;;1.80;;
5955;SDS011;3004;48.080;11.600;2023-04-24T13:49:13;66.17;;;1.80;;
5955;SDS011;3004;48.080;11.600;2023-04-24T13:51:46;66.33;;;1.80;;
5955;SDS011;3004;48.080;11.600;2023-04-24T13:54:19;66.43;;;1.80;;
5955;SDS011;3004;48.080;11.600;2023-04-24T13:59:58;65.80;;;1.90;;
5955;SDS011;3004;48.080;11.600;2023-04-24T14:02:31;66.47;;;1.60;;
5955;SDS011;3004;48.080;11.600;2023-04-24T14:04:59;66.40;;;1.50;;
5955;SDS011;3004;48.080;11.600;2023-04-24T14:07:30;67.10;;;2.17;;
5955;SDS011;3004;48.080;11.600;2023-04-24T14:09:57;66.47;;;1.50;;
5955;SDS011;3004;48.080;11.600;2023-04-24T14:12:41;66.43;;;1.50;;
5955;SDS011;3004;48.080;11.600;2023-04-24T14:15:23;66.87;;;1.60;;
5955;SDS011;3004;48.080;11.600;2023-04-24T14:17:58;67.10;;;1.60;;
5955;SDS011;3004;48.080;11.600;2023-04-24T14:20:32;67.33;;;1.40;;
5955;SDS011;3004;48.080;11.600;2023-04-24T14:23:00;67.57;;;1.40;;
5955;SDS011;3004;48.080;11.600;2023-04-24T14:25:34;67.20;;;1.30;;
5955;SDS011;3004;48.080;11.600;2023-04-24T14:43:27;67.17;;;1.10;;
5955;SDS011;3004;48.080;11.600;2023-04-24T14:57:46;67.73;;;1.10;;
5955;SDS011;3004;48.080;11.600;2023-04-24T15:12:16;68.20;;;1.83;;
5955;SDS011;3004;48.080;11.600;2023-04-24T15:14:50;67.17;;;1.23;;
5955;SDS011;3004;48.080;11.600;2023-04-24T15:17:21;67.17;;;1.10;;
5955;SDS011;3004;48.080;11.600;2023-04-24T15:19:49;67.30;;;1.40;;
5955;SDS011;3004;48.080;11.600;2023-04-24T15:25:31;67.10;;;1.10;;
5955;SDS011;3004;48.080;11.600;2023-04-24T15:28:01;67.87;;;1.40;;
5955;SDS011;3004;48.080;11.600;2023-04-24T15:30:30;67.27;;;1.10;;
5955;SDS011;3004;48.080;11.600;2023-04-24T15:32:57;67.47;;;1.40;;
5955;SDS011;3004;48.080;11.600;2023-04-24T15:35:27;68.27;;;2.00;;
5955;SDS011;3004;48.080;11.600;2023-04-24T15:38:14;67.33;;;1.20;;
5955;SDS011;3004;48.080;11.600;2023-04-24T15:40:42;67.20;;;1.23;;
5955;SDS011;3004;48.080;11.600;2023-04-24T15:43:19;67.10;;;1.10;;
5955;SDS011;3004;48.080;11.600;2023-04-24T15:46:02;66.70;;;1.20;;
5955;SDS011;3004;48.080;11.600;2023-04-24T15:51:32;67.20;;;1.30;;
5955;SDS011;3004;48.080;11.600;2023-04-24T15:54:03;67.13;;;1.20;;
5955;SDS011;3004;48.080;11.600;2023-04-24T15:56:47;67.73;;;1.50;;
5955;SDS011;3004;48.080;11.600;2023-04-24T16:02:36;67.10;;;1.30;;
5955;SDS011;3004;48.080;11.600;2023-04-24T16:05:15;67.57;;;1.67;;
5955;SDS011;3004;48.080;11.600;2023-04-24T16:08:13;67.27;;;1.30;;
5955;SDS011;3004;48.080;11.600;2023-04-24T16:10:46;67.07;;;1.20;;
5955;SDS011;3004;48.080;11.600;2023-04-24T16:13:16;67.33;;;1.23;;
5955;SDS011;3004;48.080;11.600;2023-04-24T16:15:53;66.60;;;1.40;;
5955;SDS011;3004;48.080;11.600;2023-04-24T16:18:23;67.07;;;1.20;;
5955;SDS011;3004;48.080;11.600;2023-04-24T16:20:51;67.27;;;1.60;;
5955;SDS011;3004;48.080;11.600;2023-04-24T16:23:34;66.97;;;1.20;;
5955;SDS011;3004;48.080;11.600;2023-04-24T16:26:36;67.27;;;1.30;;
5955;SDS011;3004;48.080;11.600;2023-04-24T16:29:04;67.07;;;1.20;;
5955;SDS011;3004;48.080;11.600;2023-04-24T16:31:47;67.20;;;1.30;;
5955;SDS011;3004;48.080;11.600;2023-04-24T16:34:31;67.27;;;1.40;;
5955;SDS011;3004;48.080;11.600;2023-04-24T16:36:58;67.00;;;1.20;;
5955;SDS011;3004;48.080;11.600;2023-04-24T16:39:40;67.07;;;1.20;;
5955;SDS011;3004;48.080;11.600;2023-04-24T16:42:09;66.97;;;1.20;;
5955;SDS011;3004;48.080;11.600;2023-04-24T16:44:47;67.13;;;1.20;;
5955;SDS011;3004;48.080;11.600;2023-04-24T16:47:14;67.10;;;1.20;;
5955;SDS011;3004;48.080;11.600;2023-04-24T16:49:44;67.53;;;1.50;;
5955;SDS011;3004;48.080;11.600;2023-04-24T16:52:18;67.20;;;1.20;;
5955;SDS011;3004;48.080;11.600;2023-04-24T16:54:59;67.00;;;1.20;;
5955;SDS011;3004;48.080;11.600;2023-04-24T16:57:59;66.60;;;1.20;;
5955;SDS011;3004;48.080;11.600;2023-04-24T17:00:35;67.20;;;1.30;;
5955;SDS011;3004;48.080;11.600;2023-04-24T17:03:04;67.33;;;1.30;;
5955;SDS011;3004;48.080;11.600;2023-04-24T17:05:33;67.27;;;1.40;;
5955;SDS011;3004;48.080;11.600;2023-04-24T17:08:08;66.63;;;1.30;;
5955;SDS011;3004;48.080;11.600;2023-04-24T17:10:38;67.07;;;1.30;;
5955;SDS011;3004;48.080;11.600;2023-04-24T17:13:06;66.80;;;1.30;;
5955;SDS011;3004;48.080;11.600;2023-04-24T17:15:44;66.70;;;1.20;;
5955;SDS011;3004;48.080;11.600;2023-04-24T17:18:29;66.80;;;1.20;;
5955;SDS011;3004;48.080;11.600;2023-04-24T17:21:01;67.70;;;2.37;;
5955;SDS011;3004;48.080;11.600;2023-04-24T17:23:28;67.17;;;1.20;;
5955;SDS011;3004;48.080;11.600;2023-04-24T17:26:05;67.00;;;1.20;;
5955;SDS011;3004;48.080;11.600;2023-04-24T17:28:36;67.27;;;1.20;;
5955;SDS011;3004;48.080;11.600;2023-04-24T17:31:05;67.27;;;1.50;;
5955;SDS011;3004;48.080;11.600;2023-04-24T17:33:42;67.00;;;1.10;;
5955;SDS011;3004;48.080;11.600;2023-04-24T17:36:25;67.00;;;1.20;;
5955;SDS011;3004;48.080;11.600;2023-04-24T17:38:58;70.10;;;1.87;;
5955;SDS011;3004;48.080;11.600;2023-04-24T17:41:29;67.47;;;1.73;;
5955;SDS011;3004;48.080;11.600;2023-04-24T17:44:05;67.07;;;1.30;;
5955;SDS011;3004;48.080;11.600;2023-04-24T17:46:32;66.90;;;1.20;;
5955;SDS011;3004;48.080;11.600;2023-04-24T17:49:04;66.40;;;1.10;;
5955;SDS011;3004;48.080;11.600;2023-04-24T17:51:53;66.77;;;1.30;;
5955;SDS011;3004;48.080;11.600;2023-04-24T17:54:21;67.10;;;1.23;;
5955;SDS011;3004;48.080;11.600;2023-04-24T17:56:48;66.80;;;1.20;;
5955;SDS011;3004;48.080;11.600;2023-04-24T17:59:17;67.20;;;1.33;;
5955;SDS011;3004;48.080;11.600;2023-04-24T18:01:55;67.00;;;1.20;;
5955;SDS011;3004;48.080;11.600;2023-04-24T18:04:26;66.50;;;1.20;;
5955;SDS011;3004;48.080;11.600;2023-04-24T18:06:57;67.10;;;1.20;;
5955;SDS011;3004;48.080;11.600;2023-04-24T18:09:25;67.00;;;1.20;;
5955;SDS011;3004;48.080;11.600;2023-04-24T18:11:52;67.07;;;1.10;;
5955;SDS011;3004;48.080;11.600;2023-04-24T18:14:23;67.33;;;1.17;;
5955;SDS011;3004;48.080;11.600;2023-04-24T18:16:53;67.27;;;1.10;;
5955;SDS011;3004;48.080;11.600;2023-04-24T18:19:20;66.77;;;1.20;;
5955;SDS011;3004;48.080;11.600;2023-04-24T18:33:44;68.00;;;1.67;;
5955;SDS011;3004;48.080;11.600;2023-04-24T18:36:28;67.17;;;1.47;;
5955;SDS011;3004;48.080;11.600;2023-04-24T18:39:09;66.50;;;1.20;;
5955;SDS011;3004;48.080;11.600;2023-04-24T18:41:48;67.07;;;1.20;;
5955;SDS011;3004;48.080;11.600;2023-04-24T18:44:37;66.93;;;1.30;;
5955;SDS011;3004;48.080;11.600;2023-04-24T18:47:26;66.57;;;1.20;;
5955;SDS011;3004;48.080;11.600;2023-04-24T19:55:56;65.93;;;1.53;;
5955;SDS011;3004;48.080;11.600;2023-04-24T19:58:42;66.50;;;1.30;;
5955;SDS011;3004;48.080;11.600;2023-04-24T20:02:30;65.93;;;1.50;;
5955;SDS011;3004;48.080;11.600;2023-04-24T20:04:46;66.47;;;1.27;;
5955;SDS011;3004;48.080;11.600;2023-04-24T20:07:22;66.10;;;1.30;;
5955;SDS011;3004;48.080;11.600;2023-04-24T20:19:41;66.50;;;1.30;;
5955;SDS011;3004;48.080;11.600;2023-04-24T20:22:27;66.77;;;1.77;;
5955;SDS011;3004;48.080;11.600;2023-04-24T20:25:07;66.37;;;1.50;;
5955;SDS011;3004;48.080;11.600;2023-04-24T20:27:55;65.90;;;1.40;;
5955;SDS011;3004;48.080;11.600;2023-04-24T20:39:51;66.43;;;1.57;;
5955;SDS011;3004;48.080;11.600;2023-04-24T20:42:37;66.27;;;1.50;;
5955;SDS011;3004;48.080;11.600;2023-04-24T20:48:24;65.90;;;1.70;;
5955;SDS011;3004;48.080;11.600;2023-04-24T20:51:01;66.47;;;1.60;;
5955;SDS011;3004;48.080;11.600;2023-04-24T20:53:32;65.97;;;1.70;;
5955;SDS011;3004;48.080;11.600;2023-04-24T20:56:09;69.10;;;2.90;;
5955;SDS011;3004;48.080;11.600;2023-04-24T21:01:47;66.77;;;2.33;;
5955;SDS011;3004;48.080;11.600;2023-04-24T21:04:31;66.07;;;1.70;;
5955;SDS011;3004;48.080;11.600;2023-04-24T21:07:08;66.47;;;2.13;;
5955;SDS011;3004;48.080;11.600;2023-04-24T21:09:39;66.47;;;1.90;;
5955;SDS011;3004;48.080;11.600;2023-04-24T21:15:29;66.10;;;2.00;;
5955;SDS011;3004;48.080;11.600;2023-04-24T21:18:01;66.77;;;3.07;;
5955;SDS011;3004;48.080;11.600;2023-04-24T21:20:33;66.00;;;2.20;;
5955;SDS011;3004;48.080;11.600;2023-04-24T21:23:07;66.00;;;2.20;;
5955;SDS011;3004;48.080;11.600;2023-04-24T21:25:53;66.17;;;2.20;;
5955;SDS011;3004;48.080;11.600;2023-04-24T21:34:24;66.57;;;2.40;;
5955;SDS011;3004;48.080;11.600;2023-04-24T21:36:53;66.47;;;2.50;;
5955;SDS011;3004;48.080;11.600;2023-04-24T21:39:30;66.27;;;2.50;;
5955;SDS011;3004;48.080;11.600;2023-04-24T21:42:00;66.40;;;2.60;;
5955;SDS011;3004;48.080;11.600;2023-04-24T21:44:34;66.87;;;2.60;;
5955;SDS011;3004;48.080;11.600;2023-04-24T21:47:04;67.70;;;3.03;;
5955;SDS011;3004;48.080;11.600;2023-04-24T21:49:42;66.67;;;2.60;;
5955;SDS011;3004;48.080;11.600;2023-04-24T21:52:11;66.57;;;2.60;;
5955;SDS011;3004;48.080;11.600;2023-04-24T21:54:43;70.43;;;3.23;;
5955;SDS011;3004;48.080;11.600;2023-04-24T21:57:12;66.97;;;2.60;;
5955;SDS011;3004;48.080;11.600;2023-04-24T21:59:44;66.70;;;2.63;;
5955;SDS011;3004;48.080;11.600;2023-04-24T22:02:27;66.70;;;2.70;;
5955;SDS011;3004;48.080;11.600;2023-04-24T22:05:02;67.00;;;2.80;;
5955;SDS011;3004;48.080;11.600;2023-04-24T22:07:41;67.07;;;2.60;;
5955;SDS011;3004;48.080;11.600;2023-04-24T22:10:10;66.90;;;2.70;;
5955;SDS011;3004;48.080;11.600;2023-04-24T22:12:39;67.47;;;2.90;;
5955;SDS011;3004;48.080;11.600;2023-04-24T22:18:06;67.07;;;2.80;;
5955;SDS011;3004;48.080;11.600;2023-04-24T22:26:40;67.10;;;2.80;;
5955;SDS011;3004;48.080;11.600;2023-04-24T22:29:24;67.50;;;2.90;;
5955;SDS011;3004;48.080;11.600;2023-04-24T22:31:58;67.37;;;2.90;;
5955;SDS011;3004;48.080;11.600;2023-04-24T22:34:32;67.80;;;3.20;;
5955;SDS011;3004;48.080;11.600;2023-04-24T22:37:01;67.97;;;3.00;;
5955;SDS011;3004;48.080;11.600;2023-04-24T22:39:33;67.57;;;2.97;;
5955;SDS011;3004;48.080;11.600;2023-04-24T22:42:04;67.60;;;2.90;;
5955;SDS011;3004;48.080;11.600;2023-04-24T22:44:34;67.60;;;3.00;;
5955;SDS011;3004;48.080;11.600;2023-04-24T22:47:13;67.50;;;3.10;;
5955;SDS011;3004;48.080;11.600;2023-04-24T22:52:47;67.93;;;3.00;;
5955;SDS011;3004;48.080;11.600;2023-04-24T22:55:15;68.07;;;3.07;;
5955;SDS011;3004;48.080;11.600;2023-04-24T22:57:54;67.87;;;3.10;;
5955;SDS011;3004;48.080;11.600;2023-04-24T23:00:29;68.10;;;3.10;;
5955;SDS011;3004;48.080;11.600;2023-04-24T23:02:57;68.00;;;3.20;;
5955;SDS011;3004;48.080;11.600;2023-04-24T23:08:19;68.33;;;3.23;;
5955;SDS011;3004;48.080;11.600;2023-04-24T23:10:52;68.17;;;3.20;;
5955;SDS011;3004;48.080;11.600;2023-04-24T23:13:21;68.00;;;3.20;;
5955;SDS011;3004;48.080;11.600;2023-04-24T23:15:49;68.37;;;3.23;;
5955;SDS011;3004;48.080;11.600;2023-04-24T23:18:17;68.57;;;3.30;;
5955;SDS011;3004;48.080;11.600;2023-04-24T23:20:48;68.40;;;3.27;;
